首页
METAR-TAF:

METAR-TAF

机场 :

波薩里卡, 墨西哥

纬度: 20-31N, 经度: 097-28W, 海拔: 15米

当前天气观测

该预报发布于11小时和36分钟前的00:40 UTC
风速10节,风向北转东北
温度 25°C
湿度 79%
气压 1018 hPa
能見度: 8.0公里
阴天层高于2000英尺, 积雨云.

METAR: MMPA 110040Z 02010KT 5SM OVC020CB 25/21 A3005 RMK 8/9// HZY

时间: 06:16 (12:16 UTC)

预报

该预报发布于6小时和29分钟前的05:47 UTC
预报有效从11日的 06点(UTC)到 12日的 06点(UTC)
风速15节,风向北转东北
能見度: 8.0公里
阴天层高于2000英尺
从 11日的 1000点(UTC)
风速10节,风向北转东北
能見度: 4.8公里
多云层高于500英尺
阴天层高于1000英尺
轻雾, 毛毛雨
短暂存在
从 11日的 12点(UTC)到 11日的 16点(UTC)
能見度: 1.6公里
多云层高于400英尺
阴天层高于800英尺
轻雾, 小毛毛雨
从 11日的 1800点(UTC)
风速10节,风向北转西北,有时为20节阵风
能見度: 8.0公里
多云层高于1000英尺
阴天层高于2000英尺
从 12日的 0300点(UTC)
风速10节,风向北转东北
能見度: 8.0公里
多云层高于1000英尺
阴天层高于1500英尺

TAF: MMPA 110547Z 1106/1206 02015KT 5SM HZ OVC020 FM111000 02010KT 3SM BR DZ BKN005 OVC010 TEMPO 1112/1116 1SM BR -DZ BKN004 OVC008 FM111800 33010G20KT 5SM HZ BKN010 OVC020 FM120300 03010KT 5SM HZ BKN010 OVC015

超过4000个机场的气象观测和天气预报(METAR&TAF报告)。

可查询的气象台以黄色和红色小点在地图上表示。

将鼠标移到小点上方,可查看气象台名称。

然后点击查看天气观测和预报。

如需切换地图:点击带黑十字的绿色按钮放大地图;点击带横线的绿色按钮缩小地图;或者点击绿色箭头查看邻近地区的地图。


METAR-TAF: